Time;durP1;ratioP1;P1;durP2;ratioP2;P2;SDS_P1;SDS_P2;PMS_P1;PMS_P2;Temp;Humidity;BMP_temperature;BMP_pressure;BME280_temperature;BME280_humidity;BME280_pressure;Samples;Min_cycle;Max_cycle;Signal;HPM_P1;HPM_P2
2023/04/07 00:02:06;;;;;;;10.17;9.07;;;11.10;99.90;;;;;;5005397;28;20422;-90
2023/04/07 00:04:33;;;;;;;11.77;9.43;;;11.10;99.90;;;;;;5005273;28;20433;-90
2023/04/07 00:07:01;;;;;;;13.40;9.50;;;11.10;99.90;;;;;;5005255;28;20493;-90
2023/04/07 00:09:27;;;;;;;10.93;9.80;;;11.10;99.90;;;;;;5005199;28;20457;-90
2023/04/07 00:11:53;;;;;;;11.40;10.10;;;11.10;99.90;;;;;;5021500;28;20499;-90
2023/04/07 00:14:29;;;;;;;10.30;9.10;;;11.10;99.90;;;;;;5021559;28;20421;-90
2023/04/07 00:17:05;;;;;;;10.00;9.00;;;11.10;99.90;;;;;;5006368;28;20451;-90
2023/04/07 00:19:32;;;;;;;11.20;9.50;;;11.10;99.90;;;;;;5021290;28;20416;-90
2023/04/07 00:21:58;;;;;;;10.87;9.70;;;11.10;99.90;;;;;;5005332;28;20461;-91
2023/04/07 00:24:26;;;;;;;10.00;9.00;;;11.10;99.90;;;;;;5001732;28;20426;-90
2023/04/07 00:26:55;;;;;;;10.70;9.50;;;11.10;99.90;;;;;;5018112;28;20535;-91
2023/04/07 00:29:22;;;;;;;10.30;8.60;;;11.10;99.90;;;;;;5034691;28;20750;-90
2023/04/07 00:31:48;;;;;;;10.40;9.27;;;11.00;99.90;;;;;;5001675;28;20425;-89
2023/04/07 00:34:14;;;;;;;12.43;10.20;;;11.00;99.90;;;;;;5017447;28;20509;-90
2023/04/07 00:36:50;;;;;;;10.83;8.83;;;11.10;99.90;;;;;;5001038;28;20515;-90
2023/04/07 00:39:20;;;;;;;11.47;10.20;;;11.00;99.90;;;;;;5001408;28;20848;-89
2023/04/07 00:41:46;;;;;;;11.10;9.53;;;11.00;99.90;;;;;;5001427;28;20429;-90
2023/04/07 00:44:13;;;;;;;11.40;9.80;;;11.00;99.90;;;;;;4985271;28;20454;-90
2023/04/07 00:46:44;;;;;;;11.87;9.97;;;11.00;99.90;;;;;;5000865;28;20432;-90
2023/04/07 00:49:14;;;;;;;12.47;9.97;;;11.00;99.90;;;;;;5001270;28;20431;-91
2023/04/07 00:51:44;;;;;;;10.20;9.00;;;11.00;99.90;;;;;;5017747;28;20463;-90
2023/04/07 00:54:11;;;;;;;11.83;9.67;;;11.00;99.90;;;;;;4989644;28;20831;-90
2023/04/07 00:56:36;;;;;;;11.43;10.07;;;11.00;99.90;;;;;;5017394;28;20432;-90
2023/04/07 00:59:22;;;;;;;11.00;9.90;;;11.00;99.90;;;;;;4984706;28;20494;-90
2023/04/07 01:02:17;;;;;;;12.17;10.03;;;11.00;99.90;;;;;;5017344;28;20420;-91
2023/04/07 01:04:54;;;;;;;12.40;9.87;;;11.00;99.90;;;;;;4984653;28;20453;-91
2023/04/07 01:07:31;;;;;;;14.70;9.70;;;11.00;99.90;;;;;;4995296;28;20421;-91
2023/04/07 01:10:14;;;;;;;10.03;9.00;;;11.00;99.90;;;;;;5019661;28;20462;-91
2023/04/07 01:13:08;;;;;;;10.47;9.37;;;11.00;99.90;;;;;;5020287;28;20868;-91
2023/04/07 01:15:39;;;;;;;11.80;9.90;;;11.00;99.90;;;;;;5016531;28;20448;-90
2023/04/07 01:18:17;;;;;;;12.27;9.53;;;11.00;99.90;;;;;;5056631;28;20469;-91
2023/04/07 01:20:48;;;;;;;11.00;9.90;;;11.00;99.90;;;;;;5023747;28;20416;-91
2023/04/07 01:23:35;;;;;;;11.47;9.23;;;11.00;99.90;;;;;;5040651;28;20440;-91
2023/04/07 01:26:18;;;;;;;12.20;9.67;;;11.00;99.90;;;;;;5023354;28;20502;-90
2023/04/07 01:29:06;;;;;;;10.23;9.23;;;11.00;99.90;;;;;;5019410;28;20442;-91
2023/04/07 01:31:44;;;;;;;9.30;8.20;;;11.00;99.90;;;;;;4987384;28;20433;-91
2023/04/07 01:34:13;;;;;;;12.60;9.60;;;11.00;99.90;;;;;;5020066;28;20768;-90
2023/04/07 01:36:42;;;;;;;12.50;9.40;;;11.00;99.90;;;;;;5003550;28;20440;-89
2023/04/07 01:39:09;;;;;;;9.70;8.70;;;11.00;99.90;;;;;;5003577;28;20539;-90
2023/04/07 01:41:37;;;;;;;11.03;9.57;;;11.00;99.90;;;;;;5019593;28;20544;-90
2023/04/07 01:44:05;;;;;;;9.37;8.27;;;11.00;99.90;;;;;;5036174;28;20418;-89
2023/04/07 01:46:34;;;;;;;10.80;9.70;;;11.00;99.90;;;;;;5003430;28;20457;-89
2023/04/07 01:49:04;;;;;;;10.37;9.37;;;10.90;99.90;;;;;;4987109;28;20445;-90
2023/04/07 01:51:32;;;;;;;11.67;10.47;;;11.00;99.90;;;;;;5036330;28;20460;-90
2023/04/07 01:54:01;;;;;;;9.90;8.50;;;11.00;99.90;;;;;;5003688;28;20466;-90
2023/04/07 01:56:27;;;;;;;11.40;9.57;;;11.00;99.90;;;;;;5003307;28;20426;-90
2023/04/07 01:58:55;;;;;;;11.90;9.90;;;10.90;99.90;;;;;;5002904;28;20544;-90
2023/04/07 02:01:24;;;;;;;13.10;11.27;;;10.90;99.90;;;;;;5019961;28;20439;-90
2023/04/07 02:04:06;;;;;;;10.03;8.80;;;10.90;99.90;;;;;;5003223;28;20444;-90
2023/04/07 02:06:37;;;;;;;14.37;11.10;;;10.90;99.90;;;;;;5003231;28;20444;-90
2023/04/07 02:09:10;;;;;;;11.60;9.63;;;10.90;99.90;;;;;;5003626;28;20419;-90
2023/04/07 02:11:37;;;;;;;12.70;10.97;;;10.90;99.90;;;;;;5005496;28;20898;-90
2023/04/07 02:14:06;;;;;;;13.00;11.50;;;10.90;99.90;;;;;;5006197;28;20752;-89
2023/04/07 02:16:41;;;;;;;14.00;10.67;;;10.90;99.90;;;;;;5022990;28;20427;-90
2023/04/07 02:19:09;;;;;;;14.73;10.10;;;10.90;99.90;;;;;;5006321;28;20423;-91
2023/04/07 02:21:36;;;;;;;14.50;10.50;;;10.90;99.90;;;;;;5006029;28;20430;-89
2023/04/07 02:24:07;;;;;;;15.00;11.40;;;10.90;99.90;;;;;;5005685;28;20440;-90
2023/04/07 02:26:34;;;;;;;17.90;11.47;;;10.90;99.90;;;;;;5005625;28;20786;-90
2023/04/07 02:29:03;;;;;;;16.20;11.47;;;10.90;99.90;;;;;;5005538;28;20448;-90
2023/04/07 02:31:30;;;;;;;14.20;11.03;;;10.90;99.90;;;;;;5000405;28;20422;-88
2023/04/07 02:33:56;;;;;;;16.07;11.80;;;10.90;99.90;;;;;;5018899;28;20479;-91
2023/04/07 02:36:25;;;;;;;16.10;11.00;;;10.90;99.90;;;;;;5035428;28;20405;-90
2023/04/07 02:38:54;;;;;;;17.30;12.10;;;10.90;99.90;;;;;;4999512;28;20480;-88
2023/04/07 02:41:22;;;;;;;17.83;12.40;;;10.90;99.90;;;;;;5016037;28;20785;-90
2023/04/07 02:43:48;;;;;;;17.47;12.13;;;10.90;99.90;;;;;;4983884;28;20433;-90
2023/04/07 02:46:17;;;;;;;19.73;12.10;;;10.80;99.90;;;;;;5000138;28;20448;-89
2023/04/07 02:48:45;;;;;;;14.20;11.70;;;10.90;99.90;;;;;;4999862;28;20819;-90
2023/04/07 02:51:11;;;;;;;16.47;12.50;;;10.90;99.90;;;;;;4999026;28;20468;-90
2023/04/07 02:53:37;;;;;;;15.27;12.80;;;10.90;99.90;;;;;;5014755;28;20643;-90
2023/04/07 02:56:06;;;;;;;17.73;12.80;;;10.80;99.90;;;;;;5018348;28;20483;-90
2023/04/07 02:58:32;;;;;;;14.00;11.50;;;10.80;99.90;;;;;;5018303;28;20475;-91
2023/04/07 03:01:00;;;;;;;20.13;12.70;;;10.80;99.90;;;;;;5018332;28;20430;-90
2023/04/07 03:03:31;;;;;;;17.20;11.37;;;10.90;99.90;;;;;;5002415;28;20416;-90
2023/04/07 03:06:11;;;;;;;22.20;13.17;;;10.80;99.90;;;;;;5001865;28;20485;-89
2023/04/07 03:08:48;;;;;;;17.23;11.80;;;10.80;99.90;;;;;;5018290;28;20774;-90
2023/04/07 03:11:15;;;;;;;18.40;12.30;;;10.80;99.90;;;;;;5018007;28;20551;-90
2023/04/07 03:13:43;;;;;;;16.50;11.90;;;10.80;99.90;;;;;;5018907;28;20435;-89
2023/04/07 03:16:11;;;;;;;20.10;13.03;;;10.80;99.90;;;;;;5002220;28;20460;-90
2023/04/07 03:18:50;;;;;;;14.50;11.47;;;10.80;99.90;;;;;;5017658;28;20463;-89
2023/04/07 03:21:17;;;;;;;17.70;12.70;;;10.80;99.90;;;;;;5001971;28;20427;-89
2023/04/07 03:23:47;;;;;;;17.53;12.40;;;10.80;99.90;;;;;;5034486;28;20432;-89
2023/04/07 03:26:15;;;;;;;16.90;11.90;;;10.80;99.90;;;;;;5009740;28;20452;-90
2023/04/07 03:28:46;;;;;;;17.43;11.10;;;10.80;99.90;;;;;;5002186;28;20495;-90
2023/04/07 03:31:16;;;;;;;17.17;11.83;;;10.80;99.90;;;;;;5017770;28;20429;-89
2023/04/07 03:33:42;;;;;;;20.10;12.77;;;10.80;99.90;;;;;;5002624;28;20427;-89
2023/04/07 03:36:08;;;;;;;15.20;10.77;;;10.80;99.90;;;;;;5002211;28;20455;-90
2023/04/07 03:38:34;;;;;;;14.03;10.63;;;10.80;99.90;;;;;;5018499;28;20470;-89
2023/04/07 03:41:05;;;;;;;16.33;11.47;;;10.70;99.90;;;;;;5018695;28;20772;-90
2023/04/07 03:43:31;;;;;;;16.07;10.70;;;10.80;99.90;;;;;;4986190;28;20769;-89
2023/04/07 03:46:03;;;;;;;14.60;10.60;;;10.80;99.90;;;;;;5002540;28;20413;-90
2023/04/07 03:48:28;;;;;;;14.63;10.90;;;10.80;99.90;;;;;;5002188;28;20438;-90
2023/04/07 03:51:01;;;;;;;14.57;10.40;;;10.80;99.90;;;;;;5018324;28;20417;-90
2023/04/07 03:53:32;;;;;;;25.00;10.60;;;10.80;99.90;;;;;;5001459;28;20435;-89
2023/04/07 03:56:03;;;;;;;14.30;10.50;;;10.80;99.90;;;;;;5021398;28;20528;-90
2023/04/07 03:58:50;;;;;;;17.57;10.33;;;10.80;99.90;;;;;;5021568;28;20476;-90
2023/04/07 04:01:24;;;;;;;13.93;10.40;;;10.80;99.90;;;;;;5021448;28;20420;-89
2023/04/07 04:03:50;;;;;;;14.70;10.80;;;10.80;99.90;;;;;;5021506;28;20439;-89
2023/04/07 04:06:26;;;;;;;14.00;10.97;;;10.70;99.90;;;;;;5021479;28;20399;-89
2023/04/07 04:08:56;;;;;;;14.90;10.40;;;10.80;99.90;;;;;;5021404;28;20445;-89
2023/04/07 04:11:26;;;;;;;13.13;10.60;;;10.70;99.90;;;;;;5037631;28;20938;-89
2023/04/07 04:13:57;;;;;;;13.57;10.43;;;10.70;99.90;;;;;;5025491;28;20424;-90
2023/04/07 04:16:23;;;;;;;15.93;10.77;;;10.80;99.90;;;;;;5024740;28;20513;-90
2023/04/07 04:18:50;;;;;;;15.00;10.80;;;10.70;99.90;;;;;;5021254;28;20551;-89
2023/04/07 04:21:16;;;;;;;15.43;10.40;;;10.80;99.90;;;;;;5022015;28;20524;-89
2023/04/07 04:23:45;;;;;;;17.90;10.17;;;10.70;99.90;;;;;;5041213;28;20430;-89
2023/04/07 04:26:12;;;;;;;14.90;9.87;;;10.80;99.90;;;;;;5024152;28;20446;-89
2023/04/07 04:28:44;;;;;;;14.77;10.77;;;10.80;99.90;;;;;;5024752;28;20468;-89
2023/04/07 04:31:11;;;;;;;14.90;10.97;;;10.80;99.90;;;;;;5023921;28;20941;-89
2023/04/07 04:33:41;;;;;;;13.27;10.07;;;10.80;99.90;;;;;;5024253;28;20438;-89
2023/04/07 04:36:07;;;;;;;12.00;10.07;;;10.70;99.90;;;;;;5023996;28;20435;-88
2023/04/07 04:38:33;;;;;;;15.40;11.43;;;10.70;99.90;;;;;;5023678;28;20463;-89
2023/04/07 04:41:07;;;;;;;14.83;10.73;;;10.70;99.90;;;;;;5023268;28;20531;-89
2023/04/07 04:43:38;;;;;;;13.07;10.27;;;10.80;99.90;;;;;;5024020;28;20413;-89
2023/04/07 04:46:07;;;;;;;15.20;10.00;;;10.80;99.90;;;;;;5022622;28;20475;-88
2023/04/07 04:48:38;;;;;;;15.83;9.47;;;10.80;99.90;;;;;;5040938;28;20419;-89
2023/04/07 04:51:06;;;;;;;13.37;9.07;;;10.80;99.90;;;;;;5056637;28;20828;-89
2023/04/07 04:53:39;;;;;;;11.87;9.30;;;10.70;99.90;;;;;;5041254;28;20436;-85
2023/04/07 04:56:10;;;;;;;17.47;9.40;;;10.70;99.90;;;;;;5003660;28;20472;-87
2023/04/07 04:58:41;;;;;;;12.63;9.83;;;10.80;99.90;;;;;;5015396;28;20502;-86
2023/04/07 05:01:10;;;;;;;13.70;9.60;;;10.80;99.90;;;;;;5019514;28;20417;-87
2023/04/07 05:03:41;;;;;;;14.53;9.80;;;10.70;99.90;;;;;;5019029;28;20802;-86
2023/04/07 05:06:15;;;;;;;12.67;9.27;;;10.70;99.90;;;;;;5019401;28;20487;-86
2023/04/07 05:08:45;;;;;;;13.47;9.50;;;10.70;99.90;;;;;;5019126;28;20827;-87
2023/04/07 05:11:15;;;;;;;15.07;10.47;;;10.70;99.90;;;;;;5002957;28;20436;-86
2023/04/07 05:13:43;;;;;;;12.13;9.60;;;10.70;99.90;;;;;;5003844;28;20437;-86
2023/04/07 05:16:12;;;;;;;14.53;8.70;;;10.70;99.90;;;;;;5019460;28;20504;-87
2023/04/07 05:18:39;;;;;;;14.60;8.60;;;10.70;99.90;;;;;;5034446;28;20500;-86
2023/04/07 05:21:05;;;;;;;12.80;8.87;;;10.70;99.90;;;;;;5035743;28;20417;-87
2023/04/07 05:23:37;;;;;;;11.70;8.00;;;10.70;99.90;;;;;;5035252;28;20194;-86
2023/04/07 05:26:06;;;;;;;11.73;8.30;;;10.70;99.90;;;;;;5015811;28;20433;-86
2023/04/07 05:28:32;;;;;;;10.07;8.33;;;10.70;99.90;;;;;;5002649;28;20461;-87
2023/04/07 05:31:05;;;;;;;13.17;8.60;;;10.80;99.90;;;;;;5018845;28;20405;-85
2023/04/07 05:33:34;;;;;;;14.90;9.13;;;10.70;99.90;;;;;;5011952;28;20513;-87
2023/04/07 05:36:05;;;;;;;12.90;8.90;;;10.70;99.90;;;;;;5039329;28;20413;-86
2023/04/07 05:38:31;;;;;;;11.67;8.80;;;10.70;99.90;;;;;;5008729;28;20461;-86
2023/04/07 05:41:04;;;;;;;13.30;8.17;;;10.70;99.90;;;;;;5002368;28;20480;-85
2023/04/07 05:43:36;;;;;;;11.40;7.80;;;10.70;99.90;;;;;;5018893;28;20819;-87
2023/04/07 05:46:01;;;;;;;11.23;7.83;;;10.70;99.90;;;;;;5005329;28;20457;-86
2023/04/07 05:48:30;;;;;;;10.00;7.90;;;10.70;99.90;;;;;;5023375;28;20413;-87
2023/04/07 05:50:55;;;;;;;12.03;8.50;;;10.70;99.90;;;;;;5018656;28;20496;-86
2023/04/07 05:53:21;;;;;;;12.67;8.70;;;10.70;99.90;;;;;;5001681;28;20548;-87
2023/04/07 05:55:49;;;;;;;11.20;8.37;;;10.70;99.90;;;;;;5018434;28;20421;-86
2023/04/07 05:58:25;;;;;;;9.80;7.97;;;10.70;99.90;;;;;;5001712;28;20563;-86
2023/04/07 06:00:58;;;;;;;10.50;7.57;;;10.70;99.90;;;;;;5034659;28;20447;-86
2023/04/07 06:03:26;;;;;;;10.87;7.47;;;10.70;99.90;;;;;;5019857;28;20424;-86
2023/04/07 06:05:59;;;;;;;8.70;6.90;;;10.70;99.90;;;;;;5025254;28;20526;-86
2023/04/07 06:08:28;;;;;;;12.73;7.70;;;10.70;99.90;;;;;;5018660;28;20420;-86
2023/04/07 06:10:55;;;;;;;10.70;7.13;;;10.70;99.90;;;;;;5017916;28;20460;-85
2023/04/07 06:13:23;;;;;;;10.83;7.13;;;10.70;99.90;;;;;;5017077;28;20512;-86
2023/04/07 06:15:55;;;;;;;12.23;7.30;;;10.70;99.90;;;;;;5001623;28;20725;-86
2023/04/07 06:18:21;;;;;;;9.23;6.40;;;10.70;99.90;;;;;;5000990;28;20458;-86
2023/04/07 06:20:52;;;;;;;10.60;7.23;;;10.70;99.90;;;;;;5017467;28;20870;-87
2023/04/07 06:23:18;;;;;;;8.87;6.27;;;10.70;99.90;;;;;;5001648;28;20510;-86
2023/04/07 06:25:44;;;;;;;13.93;7.10;;;10.70;99.90;;;;;;5017216;28;20537;-87
2023/04/07 06:28:10;;;;;;;10.60;6.60;;;10.70;99.90;;;;;;5017905;28;20897;-87
2023/04/07 06:30:36;;;;;;;7.07;6.17;;;10.70;99.90;;;;;;5035099;28;20427;-86
2023/04/07 06:33:33;;;;;;;11.40;6.33;;;10.70;99.90;;;;;;5001487;28;20451;-83
2023/04/07 06:36:01;;;;;;;10.03;6.30;;;10.70;99.90;;;;;;5016935;28;20409;-86
2023/04/07 06:38:28;;;;;;;12.37;6.70;;;10.70;99.90;;;;;;4999941;28;20949;-86
2023/04/07 06:40:54;;;;;;;8.43;6.60;;;10.70;99.90;;;;;;5033811;28;20542;-86
2023/04/07 06:43:22;;;;;;;8.90;6.40;;;10.60;99.90;;;;;;5000613;28;20512;-86
2023/04/07 06:45:59;;;;;;;9.77;6.13;;;10.60;99.90;;;;;;5018313;28;20443;-85
2023/04/07 06:48:25;;;;;;;10.40;7.03;;;10.70;99.90;;;;;;5016668;28;20417;-86
2023/04/07 06:50:51;;;;;;;9.63;7.30;;;10.70;99.90;;;;;;5033414;28;20510;-85
2023/04/07 06:53:20;;;;;;;10.27;6.50;;;10.60;99.90;;;;;;5013159;28;20457;-86
2023/04/07 06:55:48;;;;;;;8.80;6.50;;;10.60;99.90;;;;;;5029269;28;20456;-85
2023/04/07 06:58:16;;;;;;;8.83;6.70;;;10.70;99.90;;;;;;5016544;28;20564;-86
2023/04/07 07:00:42;;;;;;;9.27;6.33;;;10.70;99.90;;;;;;5033764;28;20227;-86
2023/04/07 07:03:11;;;;;;;8.20;6.00;;;10.70;99.90;;;;;;5033524;28;20448;-85
2023/04/07 07:05:39;;;;;;;10.13;6.43;;;10.60;99.90;;;;;;5033555;28;20429;-86
2023/04/07 07:08:07;;;;;;;7.23;5.77;;;10.60;99.90;;;;;;5016000;28;20486;-85
2023/04/07 07:10:33;;;;;;;8.37;6.30;;;10.70;99.90;;;;;;5016430;28;20539;-86
2023/04/07 07:12:59;;;;;;;8.97;6.77;;;10.70;99.90;;;;;;5033512;28;20460;-85
2023/04/07 07:15:24;;;;;;;9.93;6.27;;;10.70;99.90;;;;;;5015903;28;20182;-85
2023/04/07 07:17:50;;;;;;;7.43;5.97;;;10.60;99.90;;;;;;5032453;28;20808;-85
2023/04/07 07:20:19;;;;;;;9.47;6.53;;;10.60;99.90;;;;;;5032253;28;20431;-86
2023/04/07 07:22:45;;;;;;;6.93;5.73;;;10.60;99.90;;;;;;4999391;28;20193;-85
2023/04/07 07:25:11;;;;;;;8.67;6.00;;;10.60;99.90;;;;;;5016461;28;20794;-86
2023/04/07 07:27:36;;;;;;;9.97;6.67;;;10.60;99.90;;;;;;5033477;28;20757;-87
2023/04/07 07:30:29;;;;;;;8.37;5.20;;;10.60;99.90;;;;;;5033024;28;20440;-87
2023/04/07 07:32:55;;;;;;;9.90;5.60;;;10.60;99.90;;;;;;5015554;28;20972;-86
2023/04/07 07:35:24;;;;;;;8.00;5.80;;;10.60;99.90;;;;;;5015978;28;20459;-86
2023/04/07 07:37:50;;;;;;;9.47;6.37;;;10.60;99.90;;;;;;5032782;28;20459;-88
2023/04/07 07:40:19;;;;;;;9.23;6.63;;;10.60;99.90;;;;;;5033095;28;20518;-86
2023/04/07 07:42:46;;;;;;;11.60;7.37;;;10.60;99.90;;;;;;5015947;28;20421;-86
2023/04/07 07:45:14;;;;;;;8.47;6.37;;;10.60;99.90;;;;;;5016039;28;20423;-88
2023/04/07 07:47:40;;;;;;;10.03;6.70;;;10.60;99.90;;;;;;5035881;28;20402;-85
2023/04/07 07:50:06;;;;;;;8.67;5.57;;;10.60;99.90;;;;;;5017565;28;20763;-87
2023/04/07 07:52:32;;;;;;;8.20;6.90;;;10.60;99.90;;;;;;4998758;28;20453;-85
2023/04/07 07:54:58;;;;;;;7.77;6.13;;;10.60;99.90;;;;;;5016066;28;20439;-85
2023/04/07 07:57:24;;;;;;;10.10;7.50;;;10.60;99.90;;;;;;5015700;28;20470;-85
2023/04/07 07:59:53;;;;;;;10.70;7.20;;;10.60;99.90;;;;;;5015699;28;20420;-85
2023/04/07 08:02:19;;;;;;;9.20;6.97;;;10.60;99.90;;;;;;5014830;28;20531;-85
2023/04/07 08:04:44;;;;;;;10.20;6.67;;;10.60;99.90;;;;;;5011356;28;20432;-86
2023/04/07 08:07:12;;;;;;;9.43;6.10;;;10.60;99.90;;;;;;5033105;28;20247;-86
2023/04/07 08:09:38;;;;;;;10.50;7.53;;;10.60;99.90;;;;;;5015614;28;20436;-86
2023/04/07 08:12:04;;;;;;;8.70;6.40;;;10.60;99.90;;;;;;5008823;28;20440;-85
2023/04/07 08:14:32;;;;;;;11.40;7.30;;;10.60;99.90;;;;;;5002680;28;20502;-89
2023/04/07 08:16:58;;;;;;;10.00;6.40;;;10.60;99.90;;;;;;4999998;28;20984;-87
2023/04/07 08:19:28;;;;;;;14.03;7.40;;;10.60;99.90;;;;;;5016862;28;20478;-87
2023/04/07 08:21:54;;;;;;;10.43;7.30;;;10.60;99.90;;;;;;5020046;28;20429;-88
2023/04/07 08:24:23;;;;;;;9.30;6.90;;;10.60;99.90;;;;;;5039826;28;20439;-87
2023/04/07 08:26:48;;;;;;;12.33;8.43;;;10.60;99.90;;;;;;5054105;28;20445;-85
2023/04/07 08:29:17;;;;;;;13.10;8.10;;;10.70;99.90;;;;;;5037072;28;20427;-86
2023/04/07 08:31:42;;;;;;;13.67;7.77;;;10.70;99.90;;;;;;5003505;28;20454;-87
2023/04/07 08:34:15;;;;;;;9.03;6.73;;;10.70;99.90;;;;;;5013561;28;20847;-86
2023/04/07 08:36:41;;;;;;;8.73;6.73;;;10.60;99.90;;;;;;5003410;28;20450;-87
2023/04/07 08:39:09;;;;;;;11.33;7.80;;;10.70;99.90;;;;;;5019423;28;20459;-87
2023/04/07 08:41:40;;;;;;;9.57;7.10;;;10.70;99.90;;;;;;5020087;28;20264;-88
2023/04/07 08:44:08;;;;;;;9.57;6.43;;;10.70;99.90;;;;;;5018034;28;20830;-85
2023/04/07 08:46:40;;;;;;;11.37;7.10;;;10.70;99.90;;;;;;5000200;28;20487;-87
2023/04/07 08:49:12;;;;;;;9.20;7.27;;;10.70;99.90;;;;;;5035711;28;20431;-86
2023/04/07 08:51:47;;;;;;;9.83;6.40;;;10.70;99.90;;;;;;5019647;28;20443;-84
2023/04/07 08:54:17;;;;;;;13.83;7.10;;;10.70;99.90;;;;;;5004682;28;20929;-85
2023/04/07 08:56:44;;;;;;;9.90;6.90;;;10.70;99.90;;;;;;5016987;28;20445;-87
2023/04/07 08:59:13;;;;;;;9.67;6.60;;;10.70;99.90;;;;;;5003790;28;20501;-85
2023/04/07 09:01:41;;;;;;;10.90;7.57;;;10.70;99.90;;;;;;5030804;28;20440;-87
2023/04/07 09:04:08;;;;;;;9.80;7.10;;;10.70;99.90;;;;;;5003148;28;20982;-88
2023/04/07 09:06:34;;;;;;;9.53;7.20;;;10.70;99.90;;;;;;4999516;28;20481;-87
2023/04/07 09:09:06;;;;;;;11.03;7.80;;;10.70;99.90;;;;;;5021820;28;20448;-86
2023/04/07 09:11:39;;;;;;;8.77;6.73;;;10.70;99.90;;;;;;5036559;28;20492;-86
2023/04/07 09:14:06;;;;;;;10.40;7.17;;;10.70;99.90;;;;;;5036120;28;20764;-85
2023/04/07 09:16:32;;;;;;;10.83;7.23;;;10.70;99.90;;;;;;5018827;28;20936;-86
2023/04/07 09:18:58;;;;;;;12.87;8.10;;;10.70;99.90;;;;;;5001940;28;20475;-86
2023/04/07 09:21:55;;;;;;;11.53;7.10;;;10.70;99.90;;;;;;5036144;28;20441;-87
2023/04/07 09:24:30;;;;;;;12.97;7.00;;;10.70;99.90;;;;;;5044587;28;20443;-87
2023/04/07 09:27:14;;;;;;;9.47;7.00;;;10.70;99.90;;;;;;5027632;28;20459;-85
2023/04/07 09:29:46;;;;;;;10.80;7.90;;;10.70;99.90;;;;;;5026267;28;20438;-88
2023/04/07 09:32:35;;;;;;;12.03;7.83;;;10.70;99.90;;;;;;5036270;28;20507;-87
2023/04/07 09:35:03;;;;;;;12.53;8.50;;;10.70;99.90;;;;;;5013234;28;20975;-88
2023/04/07 09:37:29;;;;;;;11.27;7.90;;;10.70;99.90;;;;;;5018907;28;20464;-86
2023/04/07 09:40:00;;;;;;;11.80;8.27;;;10.70;99.90;;;;;;5017848;28;20458;-85
2023/04/07 09:42:33;;;;;;;11.53;8.27;;;10.70;99.90;;;;;;5036000;28;20764;-86
2023/04/07 09:45:00;;;;;;;15.00;9.03;;;10.70;99.90;;;;;;4996359;28;20964;-85
2023/04/07 09:47:28;;;;;;;16.83;8.10;;;10.70;99.90;;;;;;5016336;28;20827;-86
2023/04/07 09:49:55;;;;;;;13.77;8.87;;;10.70;99.90;;;;;;5032005;28;20441;-87
2023/04/07 09:52:51;;;;;;;15.27;9.70;;;10.70;99.90;;;;;;5018513;28;20599;-84
2023/04/07 09:55:22;;;;;;;15.80;9.10;;;10.70;99.90;;;;;;5030752;28;20830;-85
2023/04/07 09:57:54;;;;;;;14.67;8.90;;;10.70;99.90;;;;;;5034825;28;20464;-85
2023/04/07 10:00:20;;;;;;;20.03;9.90;;;10.70;99.90;;;;;;5034156;28;20432;-83
2023/04/07 10:02:46;;;;;;;16.60;10.10;;;10.70;99.90;;;;;;5019351;28;20548;-84
2023/04/07 10:05:12;;;;;;;17.53;9.60;;;10.70;99.90;;;;;;5004423;28;20472;-85
2023/04/07 10:07:41;;;;;;;14.37;9.13;;;10.70;99.90;;;;;;5033922;28;20428;-85
2023/04/07 10:10:08;;;;;;;17.80;10.33;;;10.60;99.90;;;;;;5035047;28;20434;-86
2023/04/07 10:12:36;;;;;;;15.27;9.73;;;10.70;99.90;;;;;;5015423;28;20465;-86
2023/04/07 10:15:03;;;;;;;23.73;9.93;;;10.60;99.90;;;;;;5022649;28;20505;-86
2023/04/07 10:17:33;;;;;;;15.90;9.90;;;10.70;99.90;;;;;;5012127;28;20543;-83
2023/04/07 10:20:06;;;;;;;13.37;9.17;;;10.60;99.90;;;;;;5035474;28;20698;-84
2023/04/07 10:22:33;;;;;;;16.40;8.80;;;10.60;99.90;;;;;;5004699;28;20453;-85
2023/04/07 10:25:09;;;;;;;16.27;9.80;;;10.70;99.90;;;;;;5034157;28;20428;-85
2023/04/07 10:27:53;;;;;;;17.53;9.57;;;10.70;99.90;;;;;;5034353;28;20445;-85
2023/04/07 10:30:32;;;;;;;11.13;8.53;;;10.60;99.90;;;;;;5034581;28;20440;-86
2023/04/07 10:32:58;;;;;;;14.13;8.93;;;10.70;99.90;;;;;;5046136;28;20435;-85
2023/04/07 10:35:28;;;;;;;11.63;8.80;;;10.70;99.90;;;;;;5000773;28;20536;-85
2023/04/07 10:38:06;;;;;;;12.33;8.87;;;10.70;99.90;;;;;;5017530;28;20905;-83
2023/04/07 10:40:35;;;;;;;15.23;8.97;;;10.70;99.90;;;;;;5034054;28;20460;-86
2023/04/07 10:43:08;;;;;;;15.73;8.97;;;10.70;99.90;;;;;;5033927;28;20409;-86
2023/04/07 10:45:52;;;;;;;12.93;8.60;;;10.70;99.90;;;;;;5018395;28;20831;-85
2023/04/07 10:48:22;;;;;;;13.43;8.90;;;10.70;99.90;;;;;;4998759;28;20456;-85
2023/04/07 10:51:07;;;;;;;12.50;8.30;;;10.70;99.90;;;;;;5008790;28;20439;-87
2023/04/07 10:53:35;;;;;;;16.27;9.70;;;10.70;99.90;;;;;;5015964;28;20821;-86
2023/04/07 10:56:08;;;;;;;12.77;9.10;;;10.70;99.90;;;;;;5017351;28;20428;-88
2023/04/07 10:58:33;;;;;;;13.33;9.47;;;10.70;99.90;;;;;;5000909;28;20473;-87
2023/04/07 11:01:02;;;;;;;10.70;7.87;;;10.70;99.90;;;;;;4997733;28;20429;-86
2023/04/07 11:03:31;;;;;;;12.13;8.03;;;10.70;99.90;;;;;;5038785;28;20419;-88
2023/04/07 11:06:07;;;;;;;10.53;8.03;;;10.70;99.90;;;;;;5017068;28;20821;-86
2023/04/07 11:08:41;;;;;;;11.40;8.17;;;10.80;99.90;;;;;;5001305;28;20463;-87
2023/04/07 11:11:09;;;;;;;10.23;8.20;;;10.80;99.90;;;;;;5017114;28;20496;-87
2023/04/07 11:13:48;;;;;;;14.03;7.43;;;10.70;99.90;;;;;;5017691;28;20453;-87
2023/04/07 11:16:33;;;;;;;16.80;9.87;;;10.80;99.90;;;;;;4997583;28;20424;-87
2023/04/07 11:18:59;;;;;;;10.67;7.47;;;10.80;99.90;;;;;;5013655;28;20454;-86
2023/04/07 11:21:27;;;;;;;11.00;8.17;;;10.80;99.90;;;;;;5036363;28;20828;-88
2023/04/07 11:23:55;;;;;;;9.30;7.33;;;10.70;99.90;;;;;;5037501;28;20428;-87
2023/04/07 11:26:22;;;;;;;10.60;7.10;;;10.80;99.90;;;;;;5030851;28;20977;-87
2023/04/07 11:28:54;;;;;;;14.10;8.33;;;10.80;99.90;;;;;;5019811;28;20202;-87
2023/04/07 11:31:30;;;;;;;10.63;7.93;;;10.80;99.90;;;;;;5017133;28;20423;-87
2023/04/07 11:34:03;;;;;;;12.80;7.87;;;10.80;99.90;;;;;;5034388;28;20483;-87
2023/04/07 11:36:32;;;;;;;11.50;8.70;;;10.80;99.90;;;;;;5034463;28;20435;-86
2023/04/07 11:39:01;;;;;;;11.07;7.23;;;10.80;99.90;;;;;;5033877;28;20476;-87
2023/04/07 11:41:29;;;;;;;11.10;7.90;;;10.80;99.90;;;;;;5016882;28;20411;-86
2023/04/07 11:44:08;;;;;;;10.20;7.90;;;10.80;99.90;;;;;;5017433;28;20424;-86
2023/04/07 11:46:56;;;;;;;12.33;8.03;;;10.80;99.90;;;;;;5017552;28;20451;-87
2023/04/07 11:49:23;;;;;;;10.10;8.10;;;10.80;99.90;;;;;;5000622;28;20429;-87
2023/04/07 11:52:08;;;;;;;13.83;8.20;;;10.90;99.90;;;;;;5000364;28;20467;-87
2023/04/07 11:54:49;;;;;;;12.27;8.40;;;10.90;99.90;;;;;;5017585;28;20406;-87
2023/04/07 11:57:24;;;;;;;11.50;7.43;;;10.90;99.90;;;;;;5038175;28;20455;-87
2023/04/07 12:00:25;;;;;;;23.30;9.83;;;10.90;99.90;;;;;;5020563;28;20459;-86
2023/04/07 12:02:51;;;;;;;14.50;9.63;;;10.90;99.90;;;;;;4988134;28;20514;-87
2023/04/07 12:05:19;;;;;;;12.57;9.37;;;10.90;99.90;;;;;;5020442;28;20450;-86
2023/04/07 12:07:54;;;;;;;14.37;9.40;;;10.90;99.90;;;;;;5004443;28;20517;-86
2023/04/07 12:10:22;;;;;;;11.90;8.50;;;10.90;99.90;;;;;;5003663;28;20916;-87
2023/04/07 12:12:48;;;;;;;13.43;8.17;;;11.00;99.90;;;;;;5003892;28;20472;-87
2023/04/07 12:15:15;;;;;;;14.43;9.27;;;11.00;99.90;;;;;;5020353;28;20513;-86
2023/04/07 12:17:49;;;;;;;14.30;10.53;;;11.00;99.90;;;;;;5020019;28;20467;-86
2023/04/07 12:20:15;;;;;;;14.53;9.17;;;11.00;99.90;;;;;;5020272;28;20745;-87
2023/04/07 12:22:41;;;;;;;18.17;10.30;;;11.00;99.90;;;;;;5019904;28;20499;-85
2023/04/07 12:25:07;;;;;;;12.80;8.70;;;11.00;99.90;;;;;;5019738;28;20523;-87
2023/04/07 12:27:33;;;;;;;13.60;8.97;;;11.00;99.90;;;;;;5020162;28;20513;-87
2023/04/07 12:29:59;;;;;;;11.93;8.37;;;11.00;99.90;;;;;;5032459;28;20912;-86
2023/04/07 12:32:27;;;;;;;12.37;8.40;;;11.10;99.90;;;;;;5019645;28;20434;-87
2023/04/07 12:34:53;;;;;;;9.93;7.10;;;11.00;99.90;;;;;;5019054;28;20441;-86
2023/04/07 12:37:19;;;;;;;11.50;8.20;;;11.10;99.90;;;;;;5019796;28;20471;-86
2023/04/07 12:39:47;;;;;;;11.70;8.90;;;11.10;99.90;;;;;;5007839;28;20741;-87
2023/04/07 12:42:13;;;;;;;11.80;8.50;;;11.10;99.90;;;;;;5003590;28;20527;-87
2023/04/07 12:44:39;;;;;;;14.43;8.70;;;11.10;99.90;;;;;;5019490;28;20435;-87
2023/04/07 12:47:05;;;;;;;12.40;8.10;;;11.10;99.90;;;;;;5019812;28;20209;-87
2023/04/07 12:49:31;;;;;;;15.03;8.30;;;11.10;99.90;;;;;;5003272;28;20469;-86
2023/04/07 12:52:00;;;;;;;15.03;8.10;;;11.10;99.90;;;;;;5019963;28;20177;-86